Time;durP1;ratioP1;P1;durP2;ratioP2;P2;SDS_P1;SDS_P2;PMS_P1;PMS_P2;Temp;Humidity;BMP_temperature;BMP_pressure;BME280_temperature;BME280_humidity;BME280_pressure;Samples;Min_cycle;Max_cycle;Signal;HPM_P1;HPM_P2
2023/10/17 00:02:10;;;;;;;4.83;3.50;;;6.10;99.90;;;;;;5038322;28;20424;-72
2023/10/17 00:04:38;;;;;;;7.90;5.03;;;6.10;99.90;;;;;;5040872;28;20422;-72
2023/10/17 00:07:04;;;;;;;5.57;4.93;;;6.10;99.90;;;;;;5048941;28;20520;-71
2023/10/17 00:09:36;;;;;;;7.00;4.80;;;6.10;99.90;;;;;;5034983;28;20512;-71
2023/10/17 00:14:57;;;;;;;6.23;4.63;;;6.40;99.90;;;;;;5032921;28;20417;-73
2023/10/17 00:17:23;;;;;;;5.27;4.13;;;6.40;99.90;;;;;;5023159;28;20545;-71
2023/10/17 00:19:49;;;;;;;5.90;4.00;;;6.40;99.90;;;;;;5047282;28;20458;-71
2023/10/17 00:22:23;;;;;;;7.40;5.10;;;6.40;99.90;;;;;;5041681;28;20258;-73
2023/10/17 00:25:09;;;;;;;6.23;4.83;;;6.40;99.90;;;;;;5037137;28;20214;-71
2023/10/17 00:27:34;;;;;;;4.57;3.90;;;6.40;99.90;;;;;;5036069;28;20474;-72
2023/10/17 00:30:00;;;;;;;4.67;4.13;;;6.40;99.90;;;;;;5043316;28;20425;-71
2023/10/17 00:32:31;;;;;;;7.70;4.07;;;6.50;99.90;;;;;;5039332;28;20262;-71
2023/10/17 00:34:57;;;;;;;7.40;3.73;;;6.50;99.90;;;;;;5046995;28;20429;-72
2023/10/17 00:37:30;;;;;;;7.07;4.87;;;6.50;99.90;;;;;;5031126;28;20481;-71
2023/10/17 00:39:59;;;;;;;5.90;3.97;;;6.60;99.90;;;;;;5038559;28;20460;-71
2023/10/17 00:42:29;;;;;;;7.70;4.67;;;6.60;99.90;;;;;;5036999;28;20439;-71
2023/10/17 00:44:55;;;;;;;5.07;4.50;;;6.60;99.90;;;;;;5041929;28;20415;-71
2023/10/17 00:47:22;;;;;;;4.43;4.03;;;6.60;99.90;;;;;;5032079;28;20431;-71
2023/10/17 00:49:50;;;;;;;7.40;4.63;;;6.60;99.90;;;;;;5032197;28;20433;-71
2023/10/17 00:52:24;;;;;;;6.20;4.67;;;6.70;99.90;;;;;;5031627;28;20430;-72
2023/10/17 00:54:51;;;;;;;15.23;5.67;;;6.70;99.90;;;;;;5032099;28;20479;-71
2023/10/17 00:57:17;;;;;;;5.70;4.60;;;6.70;99.90;;;;;;5031774;28;20454;-71
2023/10/17 00:59:50;;;;;;;9.63;5.10;;;6.70;99.90;;;;;;5031892;28;20462;-72
2023/10/17 01:02:19;;;;;;;7.40;4.60;;;6.80;99.90;;;;;;5031309;28;20434;-72
2023/10/17 01:04:45;;;;;;;7.00;4.93;;;6.80;99.90;;;;;;5032071;28;20412;-71
2023/10/17 01:07:23;;;;;;;6.53;4.90;;;6.90;99.90;;;;;;5031909;28;20431;-72
2023/10/17 01:10:32;;;;;;;5.03;4.33;;;6.90;99.90;;;;;;5031914;28;20281;-72
2023/10/17 01:12:54;;;;;;;5.07;4.60;;;6.90;99.90;;;;;;5030635;28;20783;-73
2023/10/17 01:15:30;;;;;;;5.70;4.13;;;6.90;99.90;;;;;;5031952;28;20519;-72
2023/10/17 01:18:05;;;;;;;6.17;4.37;;;6.90;99.90;;;;;;5029797;28;20508;-70
2023/10/17 01:20:32;;;;;;;6.37;5.13;;;6.90;99.90;;;;;;5034638;28;20418;-71
2023/10/17 01:23:00;;;;;;;4.50;4.10;;;6.90;99.90;;;;;;5031214;28;20405;-72
2023/10/17 01:25:27;;;;;;;6.90;4.43;;;7.00;99.90;;;;;;5031230;28;20447;-71
2023/10/17 01:27:54;;;;;;;7.13;4.40;;;7.00;99.90;;;;;;5031560;28;20482;-72
2023/10/17 01:30:20;;;;;;;6.70;4.50;;;7.00;99.90;;;;;;5031621;28;20416;-71
2023/10/17 01:32:49;;;;;;;7.93;7.00;;;7.10;99.90;;;;;;5032009;28;20472;-71
2023/10/17 01:35:19;;;;;;;10.17;4.63;;;7.00;99.90;;;;;;5031558;28;20419;-72
2023/10/17 01:37:48;;;;;;;5.70;4.70;;;7.00;99.90;;;;;;5025371;28;20913;-71
2023/10/17 01:40:23;;;;;;;6.13;5.03;;;7.10;99.90;;;;;;5037490;28;20460;-72
2023/10/17 01:42:52;;;;;;;7.47;4.57;;;7.10;99.90;;;;;;5040716;28;20412;-71
2023/10/17 01:45:22;;;;;;;5.37;4.43;;;7.10;99.90;;;;;;5027586;28;20438;-71
2023/10/17 01:47:51;;;;;;;7.67;4.33;;;7.10;99.90;;;;;;5029552;28;20463;-71
2023/10/17 01:50:21;;;;;;;6.67;4.53;;;7.10;99.90;;;;;;5044561;28;20411;-72
2023/10/17 01:52:47;;;;;;;6.33;4.87;;;7.10;99.90;;;;;;5030990;28;20415;-72
2023/10/17 01:55:15;;;;;;;5.37;3.87;;;7.10;99.90;;;;;;5030907;28;20980;-72
2023/10/17 01:57:43;;;;;;;6.53;4.97;;;7.10;99.90;;;;;;5029480;28;20457;-72
2023/10/17 02:00:23;;;;;;;8.57;4.37;;;7.10;99.90;;;;;;5090920;23;20509;-67
2023/10/17 02:02:49;;;;;;;6.63;4.57;;;7.10;99.90;;;;;;5079848;28;20417;-67
2023/10/17 02:05:15;;;;;;;7.20;4.70;;;7.20;99.90;;;;;;5077803;28;20426;-70
2023/10/17 02:07:41;;;;;;;6.03;4.30;;;7.20;99.90;;;;;;5071575;28;20204;-67
2023/10/17 02:10:10;;;;;;;6.77;5.37;;;7.20;99.90;;;;;;5065564;28;20432;-66
2023/10/17 02:12:36;;;;;;;5.33;4.83;;;7.20;99.90;;;;;;5071037;28;20629;-67
2023/10/17 02:15:05;;;;;;;13.93;4.83;;;7.20;99.90;;;;;;5071258;28;20410;-67
2023/10/17 02:17:32;;;;;;;4.43;4.03;;;7.30;99.90;;;;;;5071258;28;20826;-66
2023/10/17 02:19:59;;;;;;;5.20;4.70;;;7.30;99.90;;;;;;5070950;28;20559;-67
2023/10/17 02:22:26;;;;;;;9.20;4.43;;;7.20;99.90;;;;;;5071201;28;21011;-67
2023/10/17 02:24:56;;;;;;;6.80;4.30;;;7.30;99.90;;;;;;5071020;28;20423;-67
2023/10/17 02:27:22;;;;;;;11.70;3.70;;;7.30;99.90;;;;;;5051939;28;20475;-66
2023/10/17 02:29:48;;;;;;;4.80;4.00;;;7.30;99.90;;;;;;5060120;28;20433;-67
2023/10/17 02:32:13;;;;;;;6.10;4.10;;;7.30;99.90;;;;;;5071031;28;20197;-67
2023/10/17 02:34:42;;;;;;;4.97;4.57;;;7.30;99.90;;;;;;5071073;28;20175;-67
2023/10/17 02:37:11;;;;;;;5.80;4.63;;;7.30;99.90;;;;;;5070894;28;20265;-67
2023/10/17 02:39:38;;;;;;;4.57;3.90;;;7.40;99.90;;;;;;5065222;28;20515;-69
2023/10/17 02:42:08;;;;;;;7.07;4.50;;;7.40;99.90;;;;;;5068365;28;20449;-68
2023/10/17 02:44:35;;;;;;;4.83;4.43;;;7.40;99.90;;;;;;5059832;28;20461;-67
2023/10/17 02:47:05;;;;;;;8.33;3.90;;;7.40;99.90;;;;;;5060617;28;20954;-69
2023/10/17 02:49:37;;;;;;;5.13;4.33;;;7.40;99.90;;;;;;5071549;28;20482;-71
2023/10/17 02:52:03;;;;;;;7.20;4.70;;;7.40;99.90;;;;;;5047470;28;20455;-68
2023/10/17 02:54:29;;;;;;;8.17;4.70;;;7.50;99.90;;;;;;5071360;28;20917;-69
2023/10/17 02:56:54;;;;;;;6.10;4.30;;;7.50;99.90;;;;;;5070319;28;20567;-67
2023/10/17 02:59:21;;;;;;;7.93;4.60;;;7.50;99.90;;;;;;5072503;28;20205;-68
2023/10/17 03:01:52;;;;;;;7.10;3.70;;;7.50;99.90;;;;;;5074438;28;20243;-70
2023/10/17 03:04:23;;;;;;;7.50;4.67;;;7.50;99.90;;;;;;5074365;28;20418;-67
2023/10/17 03:06:49;;;;;;;6.20;3.93;;;7.50;99.90;;;;;;5074796;28;20467;-68
2023/10/17 03:09:33;;;;;;;5.33;4.20;;;7.50;99.90;;;;;;5065128;28;20533;-68
2023/10/17 03:14:40;;;;;;;10.40;4.17;;;7.50;99.90;;;;;;5069244;28;20764;-68
2023/10/17 03:17:10;;;;;;;4.70;4.20;;;7.50;99.90;;;;;;5055821;28;20500;-67
2023/10/17 03:19:37;;;;;;;5.67;4.30;;;7.50;99.90;;;;;;5074130;28;20459;-68
2023/10/17 03:22:18;;;;;;;7.93;4.43;;;7.50;99.90;;;;;;5074352;28;20926;-68
2023/10/17 03:24:44;;;;;;;7.43;4.30;;;7.50;99.90;;;;;;5074188;28;20392;-67
2023/10/17 03:30:14;;;;;;;9.23;4.53;;;7.50;99.90;;;;;;4981653;28;20476;-68
2023/10/17 03:35:24;;;;;;;5.03;4.10;;;7.50;99.90;;;;;;5072059;28;20406;-68
2023/10/17 03:37:50;;;;;;;11.13;4.63;;;7.50;99.90;;;;;;5073375;28;20429;-71
2023/10/17 03:40:17;;;;;;;8.03;4.50;;;7.50;99.90;;;;;;5073602;28;20433;-67
2023/10/17 03:42:44;;;;;;;6.73;4.73;;;7.50;99.90;;;;;;5073847;28;20166;-67
2023/10/17 03:45:13;;;;;;;6.23;4.30;;;7.50;99.90;;;;;;5072822;28;20802;-73
2023/10/17 03:47:39;;;;;;;6.00;4.57;;;7.50;99.90;;;;;;5053361;28;20423;-68
2023/10/17 03:50:09;;;;;;;6.83;3.90;;;7.50;99.90;;;;;;5058945;28;20432;-67
2023/10/17 03:52:36;;;;;;;4.17;3.77;;;7.50;99.90;;;;;;5073441;28;20506;-67
2023/10/17 03:55:02;;;;;;;5.53;3.70;;;7.50;99.90;;;;;;5055909;28;20460;-67
2023/10/17 03:57:28;;;;;;;6.13;4.43;;;7.50;99.90;;;;;;5073372;28;20409;-67
2023/10/17 03:59:56;;;;;;;5.13;4.27;;;7.50;99.90;;;;;;5073380;28;20460;-67
2023/10/17 04:02:24;;;;;;;7.27;3.57;;;7.50;99.90;;;;;;5055656;28;20183;-67
2023/10/17 04:04:56;;;;;;;5.70;4.47;;;7.50;99.90;;;;;;5061390;28;20510;-69
2023/10/17 04:07:26;;;;;;;5.47;3.80;;;7.50;99.90;;;;;;5058645;28;20701;-68
2023/10/17 04:09:53;;;;;;;9.20;3.90;;;7.50;99.90;;;;;;5072220;28;20438;-68
2023/10/17 04:12:31;;;;;;;4.60;4.13;;;7.50;99.90;;;;;;5067629;28;20737;-68
2023/10/17 04:15:04;;;;;;;4.93;3.80;;;7.40;99.90;;;;;;5073609;28;20815;-67
2023/10/17 04:17:31;;;;;;;6.30;4.10;;;7.50;99.90;;;;;;5073638;28;20418;-67
2023/10/17 04:20:11;;;;;;;6.20;4.07;;;7.50;99.90;;;;;;5058629;28;20465;-66
2023/10/17 04:22:38;;;;;;;5.00;3.90;;;7.50;99.90;;;;;;5059137;28;20532;-67
2023/10/17 04:28:06;;;;;;;5.17;3.80;;;7.50;99.90;;;;;;5026795;28;20415;-69
2023/10/17 04:30:46;;;;;;;5.40;4.33;;;7.50;99.90;;;;;;5073180;28;20805;-68
2023/10/17 04:33:12;;;;;;;5.13;4.37;;;7.50;99.90;;;;;;5074739;28;20405;-68
2023/10/17 04:35:48;;;;;;;8.00;5.00;;;7.50;99.90;;;;;;5073819;28;20420;-67
2023/10/17 04:38:26;;;;;;;7.63;4.33;;;7.60;99.90;;;;;;5072741;28;20452;-67
2023/10/17 04:41:25;;;;;;;5.60;4.13;;;7.50;99.90;;;;;;5055114;28;20416;-67
2023/10/17 04:44:03;;;;;;;7.50;4.73;;;7.50;99.90;;;;;;5062906;28;20984;-66
2023/10/17 04:46:29;;;;;;;9.10;4.80;;;7.50;99.90;;;;;;5058479;28;20417;-67
2023/10/17 04:49:06;;;;;;;7.37;4.43;;;7.60;99.90;;;;;;5072902;28;20934;-67
2023/10/17 04:51:38;;;;;;;5.63;5.13;;;7.60;99.90;;;;;;5061652;28;20162;-68
2023/10/17 04:54:29;;;;;;;5.53;4.30;;;7.60;99.90;;;;;;5073142;28;20470;-68
2023/10/17 04:56:59;;;;;;;9.80;4.17;;;7.60;99.90;;;;;;5072943;28;20428;-67
2023/10/17 04:59:51;;;;;;;5.97;3.97;;;7.60;99.90;;;;;;5072395;28;20475;-69
2023/10/17 05:07:34;;;;;;;5.83;3.63;;;7.70;99.90;;;;;;5072265;28;20416;-71
2023/10/17 06:18:38;;;;;;;6.70;3.97;;;8.30;99.90;;;;;;5041264;28;20546;-70
2023/10/17 06:21:17;;;;;;;6.50;3.67;;;8.40;99.90;;;;;;5063252;28;20413;-69
2023/10/17 06:34:14;;;;;;;9.07;4.20;;;8.60;99.90;;;;;;5062702;28;20525;-66
2023/10/17 06:36:41;;;;;;;4.90;4.00;;;8.40;99.90;;;;;;5057770;28;20438;-65
2023/10/17 06:39:58;;;;;;;8.77;4.47;;;8.40;99.90;;;;;;5067362;28;20464;-67
2023/10/17 06:42:01;;;;;;;6.47;4.17;;;8.40;99.90;;;;;;5052244;28;20496;-66
2023/10/17 06:44:30;;;;;;;5.13;3.73;;;8.40;99.90;;;;;;5071268;28;20740;-68
2023/10/17 06:46:57;;;;;;;7.90;4.33;;;8.50;99.90;;;;;;5071545;28;20408;-68
2023/10/17 06:54:41;;;;;;;7.63;3.87;;;8.80;99.90;;;;;;5071207;28;20422;-68
2023/10/17 06:57:19;;;;;;;5.07;3.40;;;8.90;99.90;;;;;;5071682;28;20438;-69
2023/10/17 06:59:52;;;;;;;6.33;3.60;;;9.00;99.90;;;;;;5046543;28;20470;-68
2023/10/17 07:02:18;;;;;;;5.20;3.93;;;8.90;99.90;;;;;;5056136;28;20437;-68
2023/10/17 07:04:49;;;;;;;5.27;4.00;;;8.90;99.90;;;;;;5053665;28;20798;-68
2023/10/17 07:07:18;;;;;;;4.20;3.80;;;8.90;99.90;;;;;;5049621;28;20429;-70
2023/10/17 07:09:52;;;;;;;3.87;3.30;;;8.90;99.90;;;;;;5070844;28;20533;-67
2023/10/17 07:12:20;;;;;;;6.77;4.10;;;8.80;99.90;;;;;;5069474;28;20970;-67
2023/10/17 07:14:51;;;;;;;6.27;3.60;;;9.00;99.90;;;;;;5070883;28;20507;-67
2023/10/17 07:17:25;;;;;;;6.33;4.10;;;9.00;99.90;;;;;;5058214;28;20441;-68
2023/10/17 07:19:58;;;;;;;5.23;4.00;;;9.00;99.90;;;;;;5048038;28;20604;-68
2023/10/17 07:22:25;;;;;;;6.17;3.63;;;9.10;99.90;;;;;;5051200;28;20811;-68
2023/10/17 07:24:52;;;;;;;9.30;4.40;;;9.10;99.90;;;;;;5070921;28;20779;-69
2023/10/17 07:27:27;;;;;;;7.77;4.23;;;9.30;99.90;;;;;;5064341;28;20511;-69
2023/10/17 07:29:59;;;;;;;11.43;5.13;;;9.40;99.90;;;;;;5062840;28;20470;-68
2023/10/17 07:32:32;;;;;;;4.40;3.80;;;9.30;99.90;;;;;;5052715;28;20424;-68
2023/10/17 07:34:58;;;;;;;3.70;3.07;;;9.30;99.90;;;;;;5068465;28;20470;-68
2023/10/17 07:37:24;;;;;;;6.67;3.90;;;9.40;99.90;;;;;;5070741;28;20417;-68
2023/10/17 07:42:40;;;;;;;6.07;3.27;;;9.80;99.90;;;;;;5057084;28;20225;-69
2023/10/17 07:45:14;;;;;;;3.70;2.83;;;9.90;99.90;;;;;;5072868;28;20419;-70
2023/10/17 07:47:41;;;;;;;3.60;3.00;;;10.00;99.90;;;;;;5059305;28;20919;-71
2023/10/17 07:50:12;;;;;;;6.00;2.53;;;10.00;99.90;;;;;;5052243;28;20598;-69
2023/10/17 07:52:39;;;;;;;4.90;2.87;;;9.90;99.90;;;;;;5057945;28;20484;-69
2023/10/17 07:55:34;;;;;;;7.00;3.43;;;10.10;99.90;;;;;;5057998;28;20501;-69
2023/10/17 07:58:06;;;;;;;4.37;3.57;;;10.40;99.90;;;;;;5062958;28;20428;-69
2023/10/17 08:00:37;;;;;;;4.27;3.23;;;10.90;99.90;;;;;;5068109;28;20458;-69
2023/10/17 08:03:15;;;;;;;5.27;3.40;;;10.80;99.90;;;;;;5074504;28;20420;-69
2023/10/17 08:06:28;;;;;;;5.63;3.13;;;10.90;99.90;;;;;;5074234;28;20494;-71
2023/10/17 08:08:33;;;;;;;3.90;3.50;;;11.30;99.90;;;;;;5058599;28;20428;-69
2023/10/17 08:11:00;;;;;;;7.50;3.97;;;11.60;99.90;;;;;;5074315;28;20950;-69
2023/10/17 08:13:32;;;;;;;5.07;2.93;;;11.30;99.90;;;;;;5074316;28;20760;-71
2023/10/17 08:16:23;;;;;;;4.50;2.97;;;11.60;99.90;;;;;;5075028;28;20738;-69
2023/10/17 08:18:55;;;;;;;4.23;2.67;;;11.40;99.90;;;;;;5059483;28;20974;-68
2023/10/17 08:23:46;;;;;;;4.53;3.10;;;11.40;99.90;;;;;;5074138;28;20450;-69
2023/10/17 08:26:17;;;;;;;6.63;3.23;;;11.60;99.90;;;;;;5074031;28;20190;-71
2023/10/17 08:31:24;;;;;;;5.93;3.77;;;11.60;99.90;;;;;;5056265;28;20415;-69
2023/10/17 08:34:12;;;;;;;6.77;2.87;;;11.90;99.90;;;;;;5053752;28;20421;-70
2023/10/17 08:42:05;;;;;;;4.23;2.50;;;12.20;99.90;;;;;;5072413;28;20943;-68
2023/10/17 08:44:35;;;;;;;4.10;2.50;;;13.10;99.90;;;;;;5069902;28;20434;-70
2023/10/17 08:47:01;;;;;;;5.60;3.07;;;12.50;99.90;;;;;;5073687;28;20501;-69
2023/10/17 08:49:28;;;;;;;3.17;2.87;;;12.50;99.90;;;;;;5073010;28;20440;-67
2023/10/17 08:51:57;;;;;;;2.77;2.50;;;12.50;99.90;;;;;;5071262;28;20528;-66
2023/10/17 08:54:29;;;;;;;2.90;2.53;;;12.90;99.90;;;;;;5072957;28;20431;-66
2023/10/17 08:56:56;;;;;;;3.60;2.70;;;12.70;99.90;;;;;;5072454;28;20426;-69
2023/10/17 09:02:28;;;;;;;4.90;2.70;;;12.50;99.90;;;;;;5062556;28;20777;-66
2023/10/17 09:05:26;;;;;;;3.20;2.50;;;12.60;99.90;;;;;;5058204;28;21029;-65
2023/10/17 09:08:03;;;;;;;4.30;2.57;;;12.40;99.90;;;;;;5057158;28;20405;-67
2023/10/17 09:10:37;;;;;;;5.77;2.97;;;12.30;99.90;;;;;;5031832;28;20484;-66
2023/10/17 09:15:50;;;;;;;6.47;2.37;;;12.10;99.90;;;;;;5048597;28;20451;-68
2023/10/17 09:18:28;;;;;;;4.27;3.67;;;12.20;99.90;;;;;;5053012;28;20848;-67
2023/10/17 09:20:58;;;;;;;6.40;4.13;;;12.30;99.90;;;;;;5050833;28;20473;-69
2023/10/17 09:23:28;;;;;;;11.20;4.10;;;13.00;99.90;;;;;;5045798;28;20427;-66
2023/10/17 09:26:00;;;;;;;4.27;1.97;;;13.10;99.90;;;;;;5060538;28;20819;-64
2023/10/17 09:28:28;;;;;;;1.70;1.40;;;12.80;99.90;;;;;;5063462;28;20513;-67
2023/10/17 09:31:15;;;;;;;1.97;1.10;;;12.90;99.90;;;;;;5062523;28;20413;-66
2023/10/17 09:33:48;;;;;;;2.27;0.90;;;13.10;99.90;;;;;;5073083;28;20416;-66
2023/10/17 09:36:18;;;;;;;5.40;3.00;;;13.70;99.90;;;;;;5066971;28;20470;-68
2023/10/17 09:38:45;;;;;;;2.60;1.43;;;13.90;99.90;;;;;;5072920;28;20825;-58
2023/10/17 09:41:17;;;;;;;5.60;3.80;;;14.10;99.90;;;;;;5071948;28;20776;-61
2023/10/17 09:43:48;;;;;;;2.93;1.13;;;13.90;99.90;;;;;;5065705;28;20432;-59
2023/10/17 09:46:14;;;;;;;1.20;1.10;;;12.70;99.90;;;;;;5063402;28;20655;-63
2023/10/17 09:48:42;;;;;;;1.07;0.97;;;13.00;99.90;;;;;;5053978;28;20659;-62
2023/10/17 09:51:13;;;;;;;4.23;1.87;;;13.30;99.90;;;;;;5073085;28;20513;-63
2023/10/17 09:53:40;;;;;;;2.63;1.60;;;13.30;99.90;;;;;;5068428;28;20429;-59
2023/10/17 09:56:16;;;;;;;3.13;1.73;;;12.40;99.90;;;;;;5052155;28;20824;-59
2023/10/17 09:58:48;;;;;;;1.63;1.20;;;12.10;99.90;;;;;;5053780;28;20940;-60
2023/10/17 10:01:20;;;;;;;2.20;1.63;;;12.30;99.90;;;;;;5060149;28;20449;-61
2023/10/17 10:03:54;;;;;;;13.73;5.10;;;12.60;99.90;;;;;;5069637;28;20919;-59
2023/10/17 10:06:32;;;;;;;6.23;1.90;;;12.90;99.90;;;;;;5072206;28;20412;-61
2023/10/17 10:09:01;;;;;;;4.37;2.17;;;12.50;99.90;;;;;;5063237;28;20416;-61
2023/10/17 10:11:48;;;;;;;1.93;1.20;;;12.40;99.90;;;;;;5071508;28;20409;-60
2023/10/17 10:14:15;;;;;;;1.70;1.20;;;12.30;99.90;;;;;;5065611;28;20523;-65
2023/10/17 10:17:03;;;;;;;4.43;2.20;;;12.50;99.90;;;;;;5067150;28;20450;-63
2023/10/17 10:19:40;;;;;;;2.30;1.33;;;12.60;99.90;;;;;;5060494;28;20463;-62
2023/10/17 10:22:10;;;;;;;3.80;1.70;;;12.00;99.90;;;;;;5072053;28;21114;-63
2023/10/17 10:24:37;;;;;;;2.80;1.50;;;12.10;99.90;;;;;;5071892;28;20420;-59
2023/10/17 10:27:08;;;;;;;1.67;0.97;;;12.10;99.90;;;;;;5071781;28;20967;-64
2023/10/17 10:29:35;;;;;;;1.23;1.13;;;12.40;99.90;;;;;;5067488;28;20866;-63
2023/10/17 10:32:05;;;;;;;1.80;1.17;;;12.70;99.90;;;;;;5066937;28;20821;-64
2023/10/17 10:34:35;;;;;;;2.73;1.20;;;12.60;99.90;;;;;;5059804;28;20428;-61
2023/10/17 10:37:07;;;;;;;1.97;1.00;;;12.60;99.90;;;;;;5071717;28;20424;-62
2023/10/17 10:39:32;;;;;;;3.60;1.23;;;12.70;99.90;;;;;;5056348;28;20868;-60
2023/10/17 10:42:00;;;;;;;1.00;0.90;;;12.70;99.90;;;;;;5061650;28;20916;-61
2023/10/17 10:44:26;;;;;;;1.07;0.80;;;12.80;99.90;;;;;;5040454;28;20232;-61
2023/10/17 10:46:53;;;;;;;1.83;1.03;;;12.90;99.90;;;;;;5051299;28;21014;-62
2023/10/17 10:49:28;;;;;;;3.83;2.43;;;13.00;99.90;;;;;;5037827;28;20558;-64
2023/10/17 10:51:57;;;;;;;2.13;1.50;;;12.50;99.90;;;;;;5042105;28;20432;-67
2023/10/17 10:54:27;;;;;;;1.83;0.90;;;12.50;99.90;;;;;;5052644;28;20470;-67
2023/10/17 10:56:53;;;;;;;1.30;1.00;;;12.00;99.90;;;;;;5054945;28;21062;-63
2023/10/17 10:59:22;;;;;;;1.00;0.90;;;12.40;99.90;;;;;;5047302;28;20564;-63
2023/10/17 11:01:48;;;;;;;2.63;0.90;;;12.50;99.90;;;;;;5030164;28;20174;-63
2023/10/17 11:04:14;;;;;;;1.53;1.17;;;12.60;99.90;;;;;;5060292;28;20792;-64
2023/10/17 11:06:41;;;;;;;1.00;0.87;;;12.60;99.90;;;;;;5055184;28;20851;-65
2023/10/17 11:09:09;;;;;;;2.70;1.20;;;12.20;99.90;;;;;;5035640;28;20466;-65
2023/10/17 11:11:50;;;;;;;1.53;0.93;;;12.00;99.90;;;;;;5053725;28;20429;-64
2023/10/17 11:14:16;;;;;;;2.83;1.27;;;12.40;99.90;;;;;;5055972;28;20437;-64
2023/10/17 11:16:42;;;;;;;4.43;1.47;;;12.20;99.90;;;;;;5037185;28;20924;-68
2023/10/17 11:19:19;;;;;;;1.67;1.20;;;12.40;99.90;;;;;;5060709;28;20463;-65
2023/10/17 11:21:57;;;;;;;2.00;1.43;;;12.20;99.90;;;;;;5039530;28;20909;-65
2023/10/17 11:24:25;;;;;;;2.07;1.10;;;12.20;99.90;;;;;;5062466;28;20510;-65
2023/10/17 11:26:53;;;;;;;3.33;1.17;;;11.90;99.90;;;;;;5059905;28;20409;-66
2023/10/17 11:29:25;;;;;;;1.50;1.00;;;11.80;99.90;;;;;;5072125;28;20437;-62
2023/10/17 11:31:50;;;;;;;4.30;1.10;;;12.30;99.90;;;;;;5074591;28;20424;-62
2023/10/17 11:34:16;;;;;;;5.67;1.43;;;12.10;99.90;;;;;;5074610;28;20431;-61
2023/10/17 11:36:45;;;;;;;2.17;1.00;;;12.20;99.90;;;;;;5074489;28;20585;-63
2023/10/17 11:39:15;;;;;;;3.80;1.50;;;12.10;99.90;;;;;;5067890;28;20480;-60
2023/10/17 11:41:59;;;;;;;1.80;1.47;;;12.40;99.90;;;;;;5069880;28;20404;-62
2023/10/17 11:44:27;;;;;;;1.23;1.10;;;12.20;99.90;;;;;;5073995;28;20423;-62
2023/10/17 11:47:01;;;;;;;2.07;1.20;;;12.30;99.90;;;;;;5072313;28;20413;-63
2023/10/17 11:49:31;;;;;;;1.43;1.13;;;12.20;99.90;;;;;;5074187;28;20438;-61
2023/10/17 11:52:01;;;;;;;1.40;1.00;;;12.20;99.90;;;;;;5058894;28;20416;-63
2023/10/17 11:54:27;;;;;;;1.80;1.20;;;12.30;99.90;;;;;;5066826;28;20420;-62
2023/10/17 11:56:56;;;;;;;1.13;1.03;;;12.40;99.90;;;;;;5074111;28;20416;-62
2023/10/17 11:59:22;;;;;;;6.10;1.50;;;12.40;99.90;;;;;;5070117;28;20467;-62
2023/10/17 12:01:52;;;;;;;3.20;1.40;;;12.40;99.90;;;;;;5073675;28;20421;-58
2023/10/17 12:04:18;;;;;;;2.80;1.30;;;12.30;99.90;;;;;;5074259;28;20424;-57
2023/10/17 12:06:47;;;;;;;1.30;0.97;;;12.20;99.90;;;;;;5073825;28;20421;-59
2023/10/17 12:11:49;;;;;;;2.50;1.57;;;12.50;99.90;;;;;;5065464;28;20440;-59
2023/10/17 12:14:19;;;;;;;2.03;1.60;;;12.30;99.90;;;;;;5053564;28;20986;-61
2023/10/17 12:16:54;;;;;;;1.93;1.10;;;12.60;99.90;;;;;;5042967;28;20448;-67
2023/10/17 12:19:26;;;;;;;1.93;1.23;;;12.70;99.90;;;;;;5032464;28;20933;-61
2023/10/17 12:21:55;;;;;;;1.60;1.20;;;12.80;99.90;;;;;;5050250;28;20427;-61
2023/10/17 12:24:28;;;;;;;1.83;1.50;;;12.30;99.90;;;;;;5073705;28;20417;-63
2023/10/17 12:26:57;;;;;;;3.60;1.50;;;12.10;99.90;;;;;;5050970;28;20863;-61
2023/10/17 12:29:29;;;;;;;3.20;1.63;;;12.10;99.90;;;;;;5056032;28;20483;-61
2023/10/17 12:31:57;;;;;;;7.17;1.37;;;12.30;99.90;;;;;;5069974;28;20791;-61
2023/10/17 12:34:23;;;;;;;1.97;1.07;;;12.40;99.90;;;;;;5056039;28;20428;-59
2023/10/17 12:36:49;;;;;;;2.90;1.87;;;12.40;99.90;;;;;;5050531;28;20875;-60
2023/10/17 12:39:17;;;;;;;2.60;1.47;;;12.40;99.90;;;;;;5044149;28;20466;-63
2023/10/17 12:41:45;;;;;;;1.40;1.10;;;12.40;99.90;;;;;;5043276;28;20182;-61
2023/10/17 12:44:14;;;;;;;4.33;1.73;;;12.50;99.90;;;;;;5045942;28;20518;-61
2023/10/17 12:46:40;;;;;;;2.43;1.40;;;12.40;99.90;;;;;;5051636;28;20439;-63
2023/10/17 12:49:06;;;;;;;1.50;1.03;;;12.50;99.90;;;;;;5055558;28;20473;-62
2023/10/17 12:51:33;;;;;;;2.57;1.47;;;12.10;99.90;;;;;;5073314;28;20455;-60
2023/10/17 12:53:59;;;;;;;1.53;1.10;;;11.90;99.90;;;;;;5072026;28;20477;-62
2023/10/17 12:56:24;;;;;;;2.67;1.10;;;11.90;99.90;;;;;;5073563;28;20770;-61
2023/10/17 12:58:51;;;;;;;1.53;1.30;;;12.00;99.90;;;;;;5072892;28;20468;-61
2023/10/17 13:01:17;;;;;;;1.40;1.00;;;12.00;99.90;;;;;;5067732;28;20190;-60
2023/10/17 13:03:43;;;;;;;1.70;1.40;;;11.90;99.90;;;;;;5047613;28;20429;-64
2023/10/17 13:06:09;;;;;;;2.53;1.20;;;12.10;99.90;;;;;;5049612;28;20449;-61
2023/10/17 13:08:35;;;;;;;1.20;1.10;;;12.30;99.90;;;;;;5036059;28;20442;-61
2023/10/17 13:11:04;;;;;;;1.90;1.43;;;12.50;99.90;;;;;;5058572;28;20452;-61
2023/10/17 13:13:30;;;;;;;2.60;1.07;;;12.60;99.90;;;;;;5048116;28;20920;-59
2023/10/17 13:15:57;;;;;;;1.50;1.40;;;12.40;99.90;;;;;;5067068;28;20421;-62
2023/10/17 13:18:29;;;;;;;1.50;1.40;;;12.30;99.90;;;;;;5070691;28;20449;-63
2023/10/17 13:20:58;;;;;;;2.30;1.60;;;12.30;99.90;;;;;;5070865;28;20776;-62
2023/10/17 13:23:24;;;;;;;3.90;1.53;;;12.30;99.90;;;;;;5064987;28;20437;-65
2023/10/17 13:25:50;;;;;;;3.10;1.50;;;12.60;99.90;;;;;;5052704;28;20935;-61
2023/10/17 13:28:19;;;;;;;1.30;1.10;;;12.50;99.90;;;;;;5059611;28;20178;-62
2023/10/17 13:30:45;;;;;;;1.70;1.33;;;12.40;99.90;;;;;;5064432;28;20206;-61
2023/10/17 13:33:11;;;;;;;3.03;1.77;;;12.60;99.90;;;;;;5071864;28;20409;-60
2023/10/17 13:35:40;;;;;;;2.50;1.60;;;12.30;99.90;;;;;;5053713;28;20255;-62
2023/10/17 13:38:07;;;;;;;2.80;2.57;;;12.20;99.90;;;;;;5054547;28;20517;-61
2023/10/17 13:40:32;;;;;;;1.70;1.30;;;12.30;99.90;;;;;;5048320;28;20441;-61
2023/10/17 13:43:00;;;;;;;1.40;1.07;;;12.00;99.90;;;;;;5070789;28;20489;-63
2023/10/17 13:45:27;;;;;;;1.63;1.30;;;11.80;99.90;;;;;;5070132;28;20560;-64
2023/10/17 13:47:54;;;;;;;2.43;1.40;;;11.80;99.90;;;;;;5072035;28;20401;-61
2023/10/17 13:50:22;;;;;;;2.20;1.93;;;11.90;99.90;;;;;;5054311;28;20844;-62
2023/10/17 13:52:49;;;;;;;2.00;1.37;;;12.20;99.90;;;;;;5063361;28;20437;-62
2023/10/17 13:55:27;;;;;;;1.50;1.07;;;11.80;99.90;;;;;;5051035;28;20442;-62
2023/10/17 13:58:04;;;;;;;1.73;1.20;;;11.80;99.90;;;;;;5046197;28;20799;-62
2023/10/17 14:00:43;;;;;;;1.50;0.90;;;12.00;99.90;;;;;;5024708;28;20550;-62
2023/10/17 14:03:12;;;;;;;2.53;1.30;;;11.50;99.90;;;;;;5063613;28;20499;-61
2023/10/17 14:05:42;;;;;;;2.03;1.30;;;11.70;99.90;;;;;;5065866;28;20477;-61
2023/10/17 14:08:09;;;;;;;1.50;1.23;;;11.90;99.90;;;;;;5057742;28;20459;-61
2023/10/17 14:10:37;;;;;;;1.77;1.63;;;12.20;99.90;;;;;;5059179;28;20492;-61
2023/10/17 14:13:08;;;;;;;2.20;1.27;;;12.20;99.90;;;;;;5047034;28;20428;-62
2023/10/17 14:15:35;;;;;;;2.23;1.20;;;12.00;99.90;;;;;;5031655;28;20650;-61
2023/10/17 14:18:09;;;;;;;2.17;1.60;;;11.70;99.90;;;;;;5051115;28;20426;-62
2023/10/17 14:20:38;;;;;;;3.40;1.30;;;11.80;99.90;;;;;;5050104;28;20438;-62
2023/10/17 14:23:08;;;;;;;1.57;1.40;;;11.90;99.90;;;;;;5053684;28;20425;-62
2023/10/17 14:28:19;;;;;;;4.10;1.53;;;11.80;99.90;;;;;;5046446;28;20544;-62
2023/10/17 14:30:45;;;;;;;2.43;1.40;;;11.70;99.90;;;;;;5058793;28;20438;-59
2023/10/17 14:33:10;;;;;;;1.77;1.10;;;11.60;99.90;;;;;;5071369;28;20839;-62
2023/10/17 14:35:36;;;;;;;1.30;1.20;;;11.40;99.90;;;;;;5056287;28;20166;-61
2023/10/17 14:38:02;;;;;;;1.43;1.07;;;11.70;99.90;;;;;;5059503;28;20609;-62
2023/10/17 14:40:30;;;;;;;2.50;1.50;;;11.70;99.90;;;;;;5057099;28;20213;-63
2023/10/17 14:42:55;;;;;;;2.80;1.40;;;11.80;99.90;;;;;;5051247;28;20429;-62
2023/10/17 14:45:24;;;;;;;3.40;1.40;;;11.60;99.90;;;;;;5033577;28;20530;-61
2023/10/17 14:47:50;;;;;;;1.63;1.40;;;11.80;99.90;;;;;;5046470;28;20172;-61
2023/10/17 14:50:15;;;;;;;3.60;1.60;;;11.80;99.90;;;;;;5039562;28;20442;-61
2023/10/17 14:52:41;;;;;;;1.90;1.30;;;11.60;99.90;;;;;;5047033;28;20973;-61
2023/10/17 14:55:14;;;;;;;1.20;0.90;;;11.50;99.90;;;;;;5070731;28;20189;-62
2023/10/17 14:57:45;;;;;;;2.73;1.70;;;11.60;99.90;;;;;;5053182;28;20655;-62
2023/10/17 15:00:14;;;;;;;3.17;1.40;;;11.70;99.90;;;;;;5052270;28;20841;-62
2023/10/17 15:02:40;;;;;;;1.20;1.10;;;11.70;99.90;;;;;;5045302;28;20740;-62
2023/10/17 15:05:07;;;;;;;1.30;1.20;;;11.60;99.90;;;;;;5067603;28;20926;-61
2023/10/17 15:07:34;;;;;;;2.10;1.30;;;11.60;99.90;;;;;;5071824;28;20447;-60
2023/10/17 15:10:00;;;;;;;3.47;1.33;;;11.50;99.90;;;;;;5053049;28;20544;-61
2023/10/17 15:12:25;;;;;;;2.83;1.50;;;11.60;99.90;;;;;;5073850;28;20444;-61
2023/10/17 15:14:51;;;;;;;1.47;1.37;;;11.60;99.90;;;;;;5075178;28;20454;-63